Ischia Jet — IOBI — position and weather

sailwx.info

Track history (hours):
 
Tides and Currents Weather Stations Pressure Air Temp Water Temp Dewpoint Dewpoint Depression Visibility Wind Speed Wind Dir Waves Ship Positions

Ischia Jet

Last reported at 2014-Sep-15 16:33 UTC. Time now 2014-Sep-16 23:31 UTC.
Position N 40°39' E 014°23'.

Length 42 m; draft 1.2 m.

Type: Passenger vessel. MMSI: 247048700.

Date/timePositionNaut miles runAvg speedWind from/ knotsBaromVisibWave heightAir tempDewpointWater temp
2014-Sep-15 16:33N 40°39' E 014°23'9 8.6
2014-Sep-15 15:33N 40°33' E 014°14'0 0.4
2014-Sep-15 14:33N 40°34' E 014°15'17 3.2
2014-Sep-15 09:22N 40°50' E 014°17'1717.5
2014-Sep-15 08:25N 40°33' E 014°14'0 0.5
2014-Sep-15 07:28N 40°34' E 014°15'1312.7
2014-Sep-15 06:26N 40°42' E 014°29'6 0.4
2014-Sep-14 16:24N 40°38' E 014°23'8 8.9
2014-Sep-14 15:33N 40°33' E 014°14'0 0.0
2014-Sep-14 14:33N 40°33' E 014°14'0 0.0
2014-Sep-14 13:33N 40°33' E 014°14'8 7.6
2014-Sep-14 12:33N 40°38' E 014°23'8 7.6
2014-Sep-14 11:33N 40°33' E 014°14'0 0.0
2014-Sep-14 10:33N 40°33' E 014°14'0 0.0
2014-Sep-14 07:33N 40°33' E 014°14'11 0.8
2014-Sep-13 16:33N 40°41' E 014°26'1211.5
2014-Sep-13 15:33N 40°33' E 014°14'2 1.9
2014-Sep-13 14:33N 40°35' E 014°16'2 1.9
2014-Sep-13 13:33N 40°33' E 014°14'8 7.0
2014-Sep-13 12:27N 40°38' E 014°23'8 8.4
2014-Sep-13 11:33N 40°33' E 014°14'0 0.0
2014-Sep-13 10:33N 40°33' E 014°14'10 9.8
2014-Sep-13 09:33N 40°42' E 014°21'4 3.9
2014-Sep-13 08:33N 40°46' E 014°19'1312.8
2014-Sep-13 07:33N 40°33' E 014°14'14 9.6
2014-Sep-13 06:09N 40°42' E 014°29'4 0.3
2014-Sep-12 16:33N 40°40' E 014°24'10 9.9
2014-Sep-12 15:33N 40°33' E 014°14'1 1.1
2014-Sep-12 14:34N 40°34' E 014°16'1 1.0
2014-Sep-12 13:33N 40°33' E 014°14'0 0.0
2014-Sep-12 12:33N 40°33' E 014°14'0 0.0
2014-Sep-12 11:32N 40°33' E 014°14'0 0.1
2014-Sep-12 10:33N 40°33' E 014°14'1211.2
2014-Sep-12 09:29N 40°45' E 014°19'5 5.0
2014-Sep-12 08:24N 40°40' E 014°22'9 9.7
2014-Sep-12 07:31N 40°33' E 014°14'14 0.8
2014-Sep-11 15:06N 40°42' E 014°28'610.6
2014-Sep-11 14:33N 40°38' E 014°23'8 7.8
2014-Sep-11 13:33N 40°33' E 014°14'7 7.4
2014-Sep-11 12:34N 40°38' E 014°22'7 7.1
2014-Sep-11 11:31N 40°33' E 014°14'9 9.1
2014-Sep-11 10:29N 40°42' E 014°18'7 6.1
2014-Sep-11 09:19N 40°50' E 014°17'1620.1
2014-Sep-11 08:31N 40°33' E 014°14'8 0.4
2014-Sep-10 14:07N 40°41' E 014°16'9 5.5
2014-Sep-10 12:31N 40°50' E 014°16'1717.2
2014-Sep-10 11:33N 40°33' E 014°14'0 0.1
2014-Sep-10 10:33N 40°33' E 014°15'8 3.4
2014-Sep-10 08:21N 40°38' E 014°23'9 0.4
2014-Sep-09 12:18N 40°46' E 014°17'1216.6
2014-Sep-09 11:33N 40°33' E 014°14'0 0.0
2014-Sep-08 09:27N 40°33' E 014°14'0 0.0
2014-Sep-08 08:34N 40°33' E 014°14'9 0.6
2014-Sep-07 16:28N 40°39' E 014°24'9 1.8
2014-Sep-07 11:28N 40°33' E 014°14'0 0.0
2014-Sep-07 10:33N 40°33' E 014°14'7 6.9
2014-Sep-07 09:33N 40°34' E 014°23'6 6.0
2014-Sep-07 08:33N 40°36' E 014°31'  
Track history (hours):
 
Tides and Currents Weather Stations Pressure Air Temp Water Temp Dewpoint Dewpoint Depression Visibility Wind Speed Wind Dir Waves Ship Positions

Ischia Jet

Last reported at 2014-Sep-15 16:33 UTC. Time now 2014-Sep-16 23:31 UTC.
Position N 40°39' E 014°23'.

Length 42 m; draft 1.2 m.

Type: Passenger vessel. MMSI: 247048700.

Date/timePositionNaut miles runAvg speedWind from/ knotsBaromVisibWave heightAir tempDewpointWater temp
2014-Sep-15 16:33N 40°39' E 014°23'9 8.6
2014-Sep-15 15:33N 40°33' E 014°14'0 0.4
2014-Sep-15 14:33N 40°34' E 014°15'17 3.2
2014-Sep-15 09:22N 40°50' E 014°17'1717.5
2014-Sep-15 08:25N 40°33' E 014°14'0 0.5
2014-Sep-15 07:28N 40°34' E 014°15'1312.7
2014-Sep-15 06:26N 40°42' E 014°29'6 0.4
2014-Sep-14 16:24N 40°38' E 014°23'8 8.9
2014-Sep-14 15:33N 40°33' E 014°14'0 0.0
2014-Sep-14 14:33N 40°33' E 014°14'0 0.0
2014-Sep-14 13:33N 40°33' E 014°14'8 7.6
2014-Sep-14 12:33N 40°38' E 014°23'8 7.6
2014-Sep-14 11:33N 40°33' E 014°14'0 0.0
2014-Sep-14 10:33N 40°33' E 014°14'0 0.0
2014-Sep-14 07:33N 40°33' E 014°14'11 0.8
2014-Sep-13 16:33N 40°41' E 014°26'1211.5
2014-Sep-13 15:33N 40°33' E 014°14'2 1.9
2014-Sep-13 14:33N 40°35' E 014°16'2 1.9
2014-Sep-13 13:33N 40°33' E 014°14'8 7.0
2014-Sep-13 12:27N 40°38' E 014°23'8 8.4
2014-Sep-13 11:33N 40°33' E 014°14'0 0.0
2014-Sep-13 10:33N 40°33' E 014°14'10 9.8
2014-Sep-13 09:33N 40°42' E 014°21'4 3.9
2014-Sep-13 08:33N 40°46' E 014°19'1312.8
2014-Sep-13 07:33N 40°33' E 014°14'14 9.6
2014-Sep-13 06:09N 40°42' E 014°29'4 0.3
2014-Sep-12 16:33N 40°40' E 014°24'10 9.9
2014-Sep-12 15:33N 40°33' E 014°14'1 1.1
2014-Sep-12 14:34N 40°34' E 014°16'1 1.0
2014-Sep-12 13:33N 40°33' E 014°14'0 0.0
2014-Sep-12 12:33N 40°33' E 014°14'0 0.0
2014-Sep-12 11:32N 40°33' E 014°14'0 0.1
2014-Sep-12 10:33N 40°33' E 014°14'1211.2
2014-Sep-12 09:29N 40°45' E 014°19'5 5.0
2014-Sep-12 08:24N 40°40' E 014°22'9 9.7
2014-Sep-12 07:31N 40°33' E 014°14'14 0.8
2014-Sep-11 15:06N 40°42' E 014°28'610.6
2014-Sep-11 14:33N 40°38' E 014°23'8 7.8
2014-Sep-11 13:33N 40°33' E 014°14'7 7.4
2014-Sep-11 12:34N 40°38' E 014°22'7 7.1
2014-Sep-11 11:31N 40°33' E 014°14'9 9.1
2014-Sep-11 10:29N 40°42' E 014°18'7 6.1
2014-Sep-11 09:19N 40°50' E 014°17'1620.1
2014-Sep-11 08:31N 40°33' E 014°14'8 0.4
2014-Sep-10 14:07N 40°41' E 014°16'9 5.5
2014-Sep-10 12:31N 40°50' E 014°16'1717.2
2014-Sep-10 11:33N 40°33' E 014°14'0 0.1
2014-Sep-10 10:33N 40°33' E 014°15'8 3.4
2014-Sep-10 08:21N 40°38' E 014°23'9 0.4
2014-Sep-09 12:18N 40°46' E 014°17'1216.6
2014-Sep-09 11:33N 40°33' E 014°14'0 0.0
2014-Sep-08 09:27N 40°33' E 014°14'0 0.0
2014-Sep-08 08:34N 40°33' E 014°14'9 0.6
2014-Sep-07 16:28N 40°39' E 014°24'9 1.8
2014-Sep-07 11:28N 40°33' E 014°14'0 0.0
2014-Sep-07 10:33N 40°33' E 014°14'7 6.9
2014-Sep-07 09:33N 40°34' E 014°23'6 6.0
2014-Sep-07 08:33N 40°36' E 014°31'  

Dump ship's entire track history